Time;durP1;ratioP1;P1;durP2;ratioP2;P2;SDS_P1;SDS_P2;PMS_P1;PMS_P2;Temp;Humidity;BMP_temperature;BMP_pressure;BME280_temperature;BME280_humidity;BME280_pressure;Samples;Min_cycle;Max_cycle;Signal;HPM_P1;HPM_P2
2022/03/30 00:01:03;;;;;;;1.48;1.13;;;;;;;;;;4995082;28;20088;-79
2022/03/30 00:03:30;;;;;;;1.25;1.15;;;;;;;;;;4962142;28;20030;-78
2022/03/30 00:05:56;;;;;;;2.65;1.08;;;;;;;;;;4994887;28;20518;-78
2022/03/30 00:08:22;;;;;;;5.70;3.60;;;;;;;;;;4977275;28;20438;-78
2022/03/30 00:10:47;;;;;;;1.75;1.65;;;;;;;;;;4975541;28;20083;-78
2022/03/30 00:13:12;;;;;;;2.28;1.55;;;;;;;;;;4993428;28;20062;-79
2022/03/30 00:15:38;;;;;;;1.13;1.00;;;;;;;;;;4977401;28;20356;-80
2022/03/30 00:18:06;;;;;;;5.88;2.42;;;;;;;;;;4994254;28;20103;-79
2022/03/30 00:20:33;;;;;;;1.30;1.25;;;;;;;;;;4994685;28;20037;-79
2022/03/30 00:22:59;;;;;;;0.30;0.30;;;;;;;;;;4994899;28;20030;-78
2022/03/30 00:25:24;;;;;;;3.25;0.98;;;;;;;;;;4994873;28;20026;-79
2022/03/30 00:27:53;;;;;;;8.35;3.42;;;;;;;;;;4977101;28;20034;-79
2022/03/30 00:30:19;;;;;;;0.98;0.98;;;;;;;;;;4977379;28;20037;-79
2022/03/30 00:32:45;;;;;;;2.88;2.63;;;;;;;;;;4978041;28;20723;-79
2022/03/30 00:35:13;;;;;;;6.38;2.75;;;;;;;;;;4993781;28;20030;-79
2022/03/30 00:42:47;;;;;;;2.20;1.92;;;;;;;;;;4956569;28;20403;-73
2022/03/30 00:45:21;;;;;;;6.70;2.08;;;;;;;;;;4956360;28;20459;-73
2022/03/30 00:47:49;;;;;;;1.42;1.35;;;;;;;;;;4954840;29;20035;-73
2022/03/30 00:50:17;;;;;;;1.88;1.75;;;;;;;;;;4954616;28;20376;-74
2022/03/30 00:52:43;;;;;;;0.98;0.90;;;;;;;;;;4956359;28;20047;-73
2022/03/30 00:55:13;;;;;;;2.83;2.13;;;;;;;;;;4955230;28;20031;-72
2022/03/30 00:57:39;;;;;;;1.77;1.67;;;;;;;;;;4952521;29;20098;-72
2022/03/30 01:00:05;;;;;;;3.30;2.75;;;;;;;;;;4955730;28;20444;-73
2022/03/30 01:02:31;;;;;;;1.60;1.45;;;;;;;;;;4943803;28;20065;-73
2022/03/30 01:04:57;;;;;;;1.85;1.58;;;;;;;;;;4951451;29;20086;-73
2022/03/30 01:07:25;;;;;;;6.43;3.05;;;;;;;;;;4946680;29;20023;-73
2022/03/30 01:09:53;;;;;;;2.00;1.90;;;;;;;;;;4947891;29;20023;-72
2022/03/30 01:12:20;;;;;;;2.00;1.35;;;;;;;;;;4947853;29;20046;-72
2022/03/30 01:17:20;;;;;;;2.20;2.10;;;;;;;;;;5244573;23;20029;-76
2022/03/30 01:19:46;;;;;;;2.95;2.75;;;;;;;;;;4965609;28;20028;-76
2022/03/30 01:22:14;;;;;;;2.38;2.00;;;;;;;;;;4978437;28;20175;-77
2022/03/30 01:24:43;;;;;;;2.38;2.20;;;;;;;;;;4994474;28;20475;-77
2022/03/30 01:27:12;;;;;;;1.08;1.00;;;;;;;;;;4993727;28;20042;-77
2022/03/30 01:32:28;;;;;;;2.88;1.80;;;;;;;;;;4994085;28;20127;-77
2022/03/30 01:34:54;;;;;;;;;;;;;;;;;;4992364;28;20041;-77
2022/03/30 01:37:20;;;;;;;1.42;1.35;;;;;;;;;;4994235;28;19913;-77
2022/03/30 01:39:45;;;;;;;2.00;1.08;;;;;;;;;;4979635;28;20023;-77
2022/03/30 01:42:11;;;;;;;0.65;0.60;;;;;;;;;;4994156;28;20037;-77
2022/03/30 01:44:37;;;;;;;1.98;1.83;;;;;;;;;;4989433;28;20042;-77
2022/03/30 01:47:03;;;;;;;3.30;2.50;;;;;;;;;;4981935;28;20037;-76
2022/03/30 01:49:29;;;;;;;1.67;1.58;;;;;;;;;;4977281;28;20023;-77
2022/03/30 01:51:58;;;;;;;3.88;1.40;;;;;;;;;;4978031;28;20383;-77
2022/03/30 01:54:28;;;;;;;2.35;2.22;;;;;;;;;;4971333;28;20031;-77
2022/03/30 01:56:56;;;;;;;2.75;2.30;;;;;;;;;;4972147;28;20022;-77
2022/03/30 01:59:22;;;;;;;0.95;0.95;;;;;;;;;;4975097;28;20575;-77
2022/03/30 02:01:49;;;;;;;11.05;2.15;;;;;;;;;;4970968;28;20086;-77
2022/03/30 02:04:17;;;;;;;4.30;2.40;;;;;;;;;;4968924;28;20034;-77
2022/03/30 02:06:45;;;;;;;3.88;2.80;;;;;;;;;;4977492;28;20126;-76
2022/03/30 02:09:12;;;;;;;2.30;2.10;;;;;;;;;;4977951;28;20038;-76
2022/03/30 02:11:40;;;;;;;2.00;1.77;;;;;;;;;;4976848;28;20034;-76
2022/03/30 02:14:05;;;;;;;7.28;2.22;;;;;;;;;;4977777;28;20080;-77
2022/03/30 02:16:33;;;;;;;2.15;1.88;;;;;;;;;;4993370;28;20086;-77
2022/03/30 02:18:59;;;;;;;2.17;1.98;;;;;;;;;;4971699;28;20026;-77
2022/03/30 02:21:27;;;;;;;2.83;2.35;;;;;;;;;;4984030;28;20034;-76
2022/03/30 02:23:52;;;;;;;1.75;1.65;;;;;;;;;;4982855;28;20031;-77
2022/03/30 02:28:58;;;;;;;1.65;1.23;;;;;;;;;;5181452;23;20054;-76
2022/03/30 02:31:24;;;;;;;2.28;1.73;;;;;;;;;;4973320;28;20452;-76
2022/03/30 02:33:49;;;;;;;2.53;1.58;;;;;;;;;;4944875;28;20035;-76
2022/03/30 02:36:17;;;;;;;6.07;2.63;;;;;;;;;;4944915;28;20364;-76
2022/03/30 02:38:43;;;;;;;1.98;1.88;;;;;;;;;;4935609;29;20042;-77
2022/03/30 02:41:14;;;;;;;1.77;0.88;;;;;;;;;;4950763;29;20039;-77
2022/03/30 02:43:42;;;;;;;1.73;1.63;;;;;;;;;;4952780;29;20031;-76
2022/03/30 02:46:09;;;;;;;1.55;1.45;;;;;;;;;;4930116;29;20051;-77
2022/03/30 02:48:40;;;;;;;2.65;2.38;;;;;;;;;;4955944;29;20457;-76
2022/03/30 02:51:09;;;;;;;4.80;1.17;;;;;;;;;;4956728;29;20039;-77
2022/03/30 02:53:35;;;;;;;2.95;2.40;;;;;;;;;;4951960;29;20058;-77
2022/03/30 02:56:00;;;;;;;3.78;1.85;;;;;;;;;;4932628;29;20058;-77
2022/03/30 02:58:27;;;;;;;2.72;2.53;;;;;;;;;;4949556;29;20089;-76
2022/03/30 03:00:54;;;;;;;8.77;1.42;;;;;;;;;;4947809;29;20413;-77
2022/03/30 03:03:22;;;;;;;0.90;0.90;;;;;;;;;;4955516;29;20028;-79
2022/03/30 03:05:48;;;;;;;5.50;2.20;;;;;;;;;;4916230;29;20039;-77
2022/03/30 03:08:13;;;;;;;3.67;1.85;;;;;;;;;;4951544;29;20094;-76
2022/03/30 03:10:44;;;;;;;0.98;0.77;;;;;;;;;;4945098;29;20035;-77
2022/03/30 03:13:13;;;;;;;1.77;1.65;;;;;;;;;;4937455;29;20078;-77
2022/03/30 03:15:41;;;;;;;2.47;2.25;;;;;;;;;;4952976;29;20024;-77
2022/03/30 03:18:10;;;;;;;1.58;1.48;;;;;;;;;;4946205;29;20064;-76
2022/03/30 03:20:40;;;;;;;0.75;0.75;;;;;;;;;;4952744;29;20054;-77
2022/03/30 03:23:08;;;;;;;1.38;1.27;;;;;;;;;;4945455;29;20067;-76
2022/03/30 03:25:33;;;;;;;0.75;0.75;;;;;;;;;;4952483;29;20063;-77
2022/03/30 03:28:00;;;;;;;1.50;0.95;;;;;;;;;;4944197;29;20509;-75
2022/03/30 03:30:30;;;;;;;2.05;1.75;;;;;;;;;;4946216;29;20024;-76
2022/03/30 03:33:01;;;;;;;1.33;1.27;;;;;;;;;;4950091;28;20027;-76
2022/03/30 03:35:27;;;;;;;2.95;1.73;;;;;;;;;;4995948;28;20410;-78
2022/03/30 03:37:52;;;;;;;9.27;2.50;;;;;;;;;;5001614;28;20037;-78
2022/03/30 03:40:20;;;;;;;2.33;2.13;;;;;;;;;;5008551;28;20053;-78
2022/03/30 03:42:48;;;;;;;1.73;1.60;;;;;;;;;;5008542;28;20030;-77
2022/03/30 03:45:14;;;;;;;1.50;1.40;;;;;;;;;;5011559;28;20041;-76
2022/03/30 03:47:41;;;;;;;2.85;1.55;;;;;;;;;;5007103;28;20037;-76
2022/03/30 03:50:07;;;;;;;0.80;0.80;;;;;;;;;;4995388;28;20029;-77
2022/03/30 03:52:37;;;;;;;1.65;1.02;;;;;;;;;;4991329;28;20032;-77
2022/03/30 03:55:06;;;;;;;2.47;2.08;;;;;;;;;;4989808;28;20391;-78
2022/03/30 03:57:33;;;;;;;4.35;1.85;;;;;;;;;;4979284;28;20030;-78
2022/03/30 03:59:59;;;;;;;0.85;0.85;;;;;;;;;;4995784;28;20041;-77
2022/03/30 04:02:24;;;;;;;3.75;2.05;;;;;;;;;;4978701;28;20031;-77
2022/03/30 04:04:52;;;;;;;8.73;3.95;;;;;;;;;;4979084;28;20038;-77
2022/03/30 04:07:20;;;;;;;6.05;2.08;;;;;;;;;;4994787;28;20034;-77
2022/03/30 04:09:47;;;;;;;1.10;1.05;;;;;;;;;;5006598;28;20032;-77
2022/03/30 04:12:15;;;;;;;0.80;0.80;;;;;;;;;;4968561;28;20037;-76
2022/03/30 04:14:40;;;;;;;2.58;1.80;;;;;;;;;;4980324;28;20054;-77
2022/03/30 04:17:06;;;;;;;1.98;1.70;;;;;;;;;;5000732;28;20069;-77
2022/03/30 04:19:33;;;;;;;1.35;1.20;;;;;;;;;;4989548;28;20026;-76
2022/03/30 04:22:01;;;;;;;2.95;2.75;;;;;;;;;;4981850;28;20034;-76
2022/03/30 04:24:28;;;;;;;7.97;4.47;;;;;;;;;;4978136;28;20130;-76
2022/03/30 04:26:56;;;;;;;5.57;2.80;;;;;;;;;;5009502;28;20463;-76
2022/03/30 04:29:21;;;;;;;2.72;2.53;;;;;;;;;;4995950;28;20026;-75
2022/03/30 04:31:49;;;;;;;3.33;3.05;;;;;;;;;;5002936;28;20072;-76
2022/03/30 04:34:15;;;;;;;0.93;0.93;;;;;;;;;;4988253;28;20030;-76
2022/03/30 04:36:42;;;;;;;1.55;1.45;;;;;;;;;;4958603;28;20031;-76
2022/03/30 04:39:07;;;;;;;1.70;1.55;;;;;;;;;;4980972;28;20042;-76
2022/03/30 04:41:35;;;;;;;0.90;0.82;;;;;;;;;;4957706;28;20030;-76
2022/03/30 04:44:01;;;;;;;1.80;1.15;;;;;;;;;;4983102;28;20113;-78
2022/03/30 04:46:28;;;;;;;1.00;0.77;;;;;;;;;;4979108;28;20166;-78
2022/03/30 04:48:54;;;;;;;2.10;1.90;;;;;;;;;;4974368;28;20114;-78
2022/03/30 04:51:22;;;;;;;2.33;1.92;;;;;;;;;;4981967;28;20438;-80
2022/03/30 04:53:47;;;;;;;1.83;1.70;;;;;;;;;;4975117;28;20041;-78
2022/03/30 04:56:15;;;;;;;1.42;0.95;;;;;;;;;;4976306;28;20035;-77
2022/03/30 04:58:45;;;;;;;1.80;1.70;;;;;;;;;;4970071;28;20030;-77
2022/03/30 05:01:13;;;;;;;3.53;3.30;;;;;;;;;;4975768;28;20037;-78
2022/03/30 05:03:38;;;;;;;3.00;2.72;;;;;;;;;;4976298;28;20030;-77
2022/03/30 05:06:06;;;;;;;2.22;1.92;;;;;;;;;;4979775;28;20033;-79
2022/03/30 05:08:34;;;;;;;3.70;2.08;;;;;;;;;;4975102;28;20027;-79
2022/03/30 05:10:59;;;;;;;1.20;1.20;;;;;;;;;;4978345;28;20027;-78
2022/03/30 05:13:26;;;;;;;2.95;2.72;;;;;;;;;;4975405;28;20023;-78
2022/03/30 05:15:54;;;;;;;0.88;0.85;;;;;;;;;;4980415;28;20034;-79
2022/03/30 05:18:20;;;;;;;1.45;1.35;;;;;;;;;;4976262;28;20027;-78
2022/03/30 05:20:47;;;;;;;1.17;1.17;;;;;;;;;;4979564;28;20114;-77
2022/03/30 05:23:13;;;;;;;2.63;1.85;;;;;;;;;;4962057;28;20407;-78
2022/03/30 05:25:41;;;;;;;0.85;0.85;;;;;;;;;;4979136;28;20058;-78
2022/03/30 05:28:09;;;;;;;3.45;1.50;;;;;;;;;;4981169;28;20054;-77
2022/03/30 05:30:37;;;;;;;1.40;1.30;;;;;;;;;;4982577;28;20018;-78
2022/03/30 05:33:02;;;;;;;1.40;1.30;;;;;;;;;;4982412;28;20041;-77
2022/03/30 05:35:28;;;;;;;4.35;1.77;;;;;;;;;;5009541;28;20054;-78
2022/03/30 05:37:55;;;;;;;2.80;2.13;;;;;;;;;;4986037;28;20541;-78
2022/03/30 05:40:23;;;;;;;1.70;1.60;;;;;;;;;;4981870;28;20027;-79
2022/03/30 05:42:48;;;;;;;1.67;0.93;;;;;;;;;;5009184;28;20455;-78
2022/03/30 05:45:16;;;;;;;1.80;1.70;;;;;;;;;;4999547;28;20034;-78
2022/03/30 05:47:42;;;;;;;1.00;0.95;;;;;;;;;;4998504;28;20054;-78
2022/03/30 05:50:09;;;;;;;2.55;2.20;;;;;;;;;;4981202;28;20076;-77
2022/03/30 05:52:39;;;;;;;0.95;0.80;;;;;;;;;;4980935;28;20027;-77
2022/03/30 05:55:05;;;;;;;2.30;2.05;;;;;;;;;;4998073;28;20113;-76
2022/03/30 05:57:30;;;;;;;2.95;2.65;;;;;;;;;;4998074;28;20506;-78
2022/03/30 05:59:58;;;;;;;1.27;1.17;;;;;;;;;;4985288;28;20033;-79
2022/03/30 06:02:24;;;;;;;1.15;1.05;;;;;;;;;;5002091;28;20443;-78
2022/03/30 06:04:57;;;;;;;0.80;0.80;;;;;;;;;;4979802;28;20053;-77
2022/03/30 06:07:23;;;;;;;2.10;1.85;;;;;;;;;;5009219;28;20056;-78
2022/03/30 06:09:51;;;;;;;4.30;1.75;;;;;;;;;;5011611;28;20143;-78
2022/03/30 06:12:17;;;;;;;2.70;2.33;;;;;;;;;;5004414;28;20030;-78
2022/03/30 06:14:42;;;;;;;9.27;3.28;;;;;;;;;;5010645;28;20033;-79
2022/03/30 06:17:08;;;;;;;5.13;1.05;;;;;;;;;;5002352;28;20025;-79
2022/03/30 06:19:37;;;;;;;4.60;1.98;;;;;;;;;;5006835;28;20105;-79
2022/03/30 06:22:08;;;;;;;3.35;1.30;;;;;;;;;;4995490;28;20128;-78
2022/03/30 06:24:41;;;;;;;2.25;2.05;;;;;;;;;;5009724;28;20368;-78
2022/03/30 06:27:09;;;;;;;1.52;1.08;;;;;;;;;;4993549;28;20042;-78
2022/03/30 06:29:38;;;;;;;1.02;0.63;;;;;;;;;;5002102;28;20084;-79
2022/03/30 06:32:06;;;;;;;1.13;1.10;;;;;;;;;;5006025;28;20030;-78
2022/03/30 06:34:35;;;;;;;0.75;0.75;;;;;;;;;;4979624;28;20474;-78
2022/03/30 06:37:00;;;;;;;2.50;2.30;;;;;;;;;;5004939;28;20072;-78
2022/03/30 06:39:28;;;;;;;0.73;0.73;;;;;;;;;;4997393;28;20061;-79
2022/03/30 06:41:56;;;;;;;6.93;1.40;;;;;;;;;;4983682;28;20045;-78
2022/03/30 06:44:24;;;;;;;3.55;2.10;;;;;;;;;;5000480;28;20022;-77
2022/03/30 06:46:50;;;;;;;5.57;2.35;;;;;;;;;;5001641;28;20038;-77
2022/03/30 06:49:15;;;;;;;3.15;2.92;;;;;;;;;;4997338;28;20651;-79
2022/03/30 06:51:41;;;;;;;0.98;0.98;;;;;;;;;;4996937;28;20031;-79
2022/03/30 06:54:06;;;;;;;1.48;1.38;;;;;;;;;;4997214;28;20042;-78
2022/03/30 06:56:34;;;;;;;1.48;1.40;;;;;;;;;;5000030;28;20402;-77
2022/03/30 06:59:00;;;;;;;2.38;1.55;;;;;;;;;;5005523;28;20026;-77
2022/03/30 07:01:25;;;;;;;1.13;1.05;;;;;;;;;;4996765;28;20121;-78
2022/03/30 07:03:56;;;;;;;3.65;3.05;;;;;;;;;;4996877;28;20334;-77
2022/03/30 07:06:23;;;;;;;1.58;1.48;;;;;;;;;;4996830;28;20034;-76
2022/03/30 07:11:44;;;;;;;1.90;1.63;;;;;;;;;;4999360;28;20121;-78
2022/03/30 07:14:12;;;;;;;1.33;1.23;;;;;;;;;;4985449;28;20036;-77
2022/03/30 07:16:40;;;;;;;3.47;1.50;;;;;;;;;;4997461;28;20329;-78
2022/03/30 07:19:06;;;;;;;6.25;3.70;;;;;;;;;;5012989;28;20058;-77
2022/03/30 07:21:33;;;;;;;1.98;1.35;;;;;;;;;;5010170;28;20060;-77
2022/03/30 07:23:59;;;;;;;0.93;0.93;;;;;;;;;;5002862;28;20411;-77
2022/03/30 07:26:26;;;;;;;1.35;1.25;;;;;;;;;;4989227;28;20030;-74
2022/03/30 07:28:52;;;;;;;5.43;2.20;;;;;;;;;;4994749;28;20496;-78
2022/03/30 07:31:20;;;;;;;1.58;1.48;;;;;;;;;;4997832;28;20061;-77
2022/03/30 07:33:47;;;;;;;3.35;2.05;;;;;;;;;;4996036;28;20065;-77
2022/03/30 07:36:12;;;;;;;2.13;1.92;;;;;;;;;;4996253;28;20457;-76
2022/03/30 07:38:41;;;;;;;2.05;1.95;;;;;;;;;;4996303;28;20096;-79
2022/03/30 07:41:08;;;;;;;3.35;2.67;;;;;;;;;;4995535;28;20026;-78
2022/03/30 07:43:38;;;;;;;1.35;1.25;;;;;;;;;;4980377;28;20411;-78
2022/03/30 07:46:04;;;;;;;1.98;1.60;;;;;;;;;;5004689;28;20340;-78
2022/03/30 07:48:29;;;;;;;18.92;2.85;;;;;;;;;;5007044;28;20022;-76
2022/03/30 07:50:57;;;;;;;2.22;2.03;;;;;;;;;;4997839;28;20057;-78
2022/03/30 07:53:22;;;;;;;3.50;2.22;;;;;;;;;;5003206;28;20159;-76
2022/03/30 07:55:52;;;;;;;0.90;0.90;;;;;;;;;;5014622;28;20120;-78
2022/03/30 07:58:21;;;;;;;2.75;2.33;;;;;;;;;;4989837;28;20033;-78
2022/03/30 08:00:49;;;;;;;2.88;2.45;;;;;;;;;;4993131;28;20157;-81
2022/03/30 08:03:22;;;;;;;3.63;1.90;;;;;;;;;;4988503;28;20026;-78
2022/03/30 08:05:47;;;;;;;21.23;4.47;;;;;;;;;;4994812;28;20034;-76
2022/03/30 08:08:15;;;;;;;5.00;2.58;;;;;;;;;;5003841;28;20033;-77
2022/03/30 08:10:40;;;;;;;1.90;1.73;;;;;;;;;;5002076;28;20078;-79
2022/03/30 08:13:10;;;;;;;3.55;2.65;;;;;;;;;;5014468;28;20050;-79
2022/03/30 08:15:38;;;;;;;2.78;2.58;;;;;;;;;;4984309;28;20034;-79
2022/03/30 08:18:07;;;;;;;2.35;2.15;;;;;;;;;;4997120;28;20021;-79
2022/03/30 08:23:19;;;;;;;2.50;2.17;;;;;;;;;;5006401;28;20041;-79
2022/03/30 08:25:45;;;;;;;3.42;2.15;;;;;;;;;;5000159;28;20025;-79
2022/03/30 08:28:10;;;;;;;6.30;3.35;;;;;;;;;;4998386;28;20034;-78
2022/03/30 08:30:36;;;;;;;1.77;1.55;;;;;;;;;;4999482;28;20040;-78
2022/03/30 08:33:03;;;;;;;2.65;2.03;;;;;;;;;;4988116;28;20040;-78
2022/03/30 08:35:32;;;;;;;2.80;2.40;;;;;;;;;;5008040;28;20057;-78
2022/03/30 08:37:57;;;;;;;1.52;1.42;;;;;;;;;;4995991;28;20038;-79
2022/03/30 08:40:26;;;;;;;2.17;1.65;;;;;;;;;;5007958;28;20026;-79
2022/03/30 08:42:53;;;;;;;11.20;2.63;;;;;;;;;;5010479;28;20037;-78
2022/03/30 08:45:19;;;;;;;4.80;1.90;;;;;;;;;;4980245;28;20034;-77
2022/03/30 08:47:47;;;;;;;1.92;1.83;;;;;;;;;;4964570;28;20036;-80
2022/03/30 08:50:12;;;;;;;3.30;2.47;;;;;;;;;;4993619;28;20416;-78
2022/03/30 08:52:37;;;;;;;2.90;1.83;;;;;;;;;;4994755;28;20045;-78
2022/03/30 08:55:04;;;;;;;3.97;3.05;;;;;;;;;;5003532;28;20034;-75
2022/03/30 08:57:31;;;;;;;2.45;1.92;;;;;;;;;;5006366;28;20026;-77
2022/03/30 09:00:08;;;;;;;3.05;2.55;;;;;;;;;;4995539;28;20466;-76
2022/03/30 09:02:49;;;;;;;1.73;1.48;;;;;;;;;;4994870;28;20514;-77
2022/03/30 09:05:23;;;;;;;2.47;1.48;;;;;;;;;;5009918;28;20076;-75
2022/03/30 09:07:57;;;;;;;1.45;1.35;;;;;;;;;;4983955;28;20099;-77
2022/03/30 09:10:32;;;;;;;2.50;1.55;;;;;;;;;;4991973;28;20026;-78
2022/03/30 09:12:58;;;;;;;4.53;1.90;;;;;;;;;;4986932;28;20151;-77
2022/03/30 09:15:24;;;;;;;9.65;2.20;;;;;;;;;;4981559;28;20463;-77
2022/03/30 09:17:52;;;;;;;5.13;1.92;;;;;;;;;;4994939;28;20331;-76
2022/03/30 09:20:20;;;;;;;5.20;2.35;;;;;;;;;;4993890;28;20870;-77
2022/03/30 09:22:54;;;;;;;2.15;1.35;;;;;;;;;;4994608;28;20145;-76
2022/03/30 09:25:23;;;;;;;1.35;1.17;;;;;;;;;;4977239;28;20053;-79
2022/03/30 09:27:55;;;;;;;3.92;2.45;;;;;;;;;;4995386;28;20030;-79
2022/03/30 09:30:21;;;;;;;3.92;2.85;;;;;;;;;;4992655;28;20149;-77
2022/03/30 09:32:49;;;;;;;1.85;1.75;;;;;;;;;;4963411;28;20030;-78
2022/03/30 09:35:24;;;;;;;3.15;1.65;;;;;;;;;;4997486;28;20018;-77
2022/03/30 09:38:21;;;;;;;1.00;1.00;;;;;;;;;;4994102;28;20022;-77
2022/03/30 09:41:01;;;;;;;8.23;2.83;;;;;;;;;;4992653;28;20063;-79
2022/03/30 09:43:34;;;;;;;1.48;1.38;;;;;;;;;;4996270;28;20387;-78
2022/03/30 09:46:09;;;;;;;3.63;1.35;;;;;;;;;;4978791;28;20631;-78
2022/03/30 09:48:39;;;;;;;4.65;1.17;;;;;;;;;;4992920;28;20384;-77
2022/03/30 09:51:08;;;;;;;4.30;1.55;;;;;;;;;;4993312;28;20058;-78
2022/03/30 09:53:37;;;;;;;2.30;1.65;;;;;;;;;;4993597;28;20037;-77
2022/03/30 09:56:08;;;;;;;1.23;0.82;;;;;;;;;;4993751;28;20504;-77
2022/03/30 09:58:40;;;;;;;1.52;1.42;;;;;;;;;;4993917;28;20089;-79
2022/03/30 10:01:09;;;;;;;2.08;1.67;;;;;;;;;;4994171;28;20073;-82
2022/03/30 10:03:48;;;;;;;0.60;0.60;;;;;;;;;;4983038;28;20052;-79
2022/03/30 10:06:26;;;;;;;2.13;1.92;;;;;;;;;;5001281;28;20080;-80
2022/03/30 10:08:53;;;;;;;5.25;2.17;;;;;;;;;;4981325;28;20100;-78
2022/03/30 10:11:21;;;;;;;2.67;1.90;;;;;;;;;;4990850;28;20073;-77
2022/03/30 10:13:54;;;;;;;0.95;0.93;;;;;;;;;;5019012;28;20011;-76
2022/03/30 10:16:21;;;;;;;6.22;2.25;;;;;;;;;;4982427;28;20125;-75
2022/03/30 10:18:51;;;;;;;1.38;1.10;;;;;;;;;;4979529;28;20050;-78
2022/03/30 10:21:47;;;;;;;0.65;0.60;;;;;;;;;;5000898;28;20030;-82
2022/03/30 10:24:18;;;;;;;1.20;1.10;;;;;;;;;;4996704;28;20109;-82
2022/03/30 10:26:51;;;;;;;2.33;1.48;;;;;;;;;;4994975;28;20026;-84
2022/03/30 10:29:17;;;;;;;2.50;1.77;;;;;;;;;;4996131;28;20035;-77
2022/03/30 10:32:22;;;;;;;1.00;0.65;;;;;;;;;;4979872;28;20084;-77
2022/03/30 10:34:53;;;;;;;4.93;1.88;;;;;;;;;;4996563;28;20049;-81
2022/03/30 10:37:26;;;;;;;2.63;1.42;;;;;;;;;;5001132;28;20049;-83
2022/03/30 10:40:11;;;;;;;1.88;1.67;;;;;;;;;;4998941;28;20109;-80
2022/03/30 10:43:03;;;;;;;2.35;1.58;;;;;;;;;;4996301;28;20034;-79
2022/03/30 10:45:57;;;;;;;2.00;1.85;;;;;;;;;;4994452;28;20036;-79
2022/03/30 10:48:29;;;;;;;1.75;1.50;;;;;;;;;;4999410;28;20018;-79
2022/03/30 10:51:03;;;;;;;1.25;0.73;;;;;;;;;;4992536;28;20017;-79
2022/03/30 10:53:47;;;;;;;1.50;1.23;;;;;;;;;;4981834;28;20365;-80
2022/03/30 10:56:16;;;;;;;1.13;1.02;;;;;;;;;;5001758;28;20042;-78
2022/03/30 10:59:30;;;;;;;0.88;0.85;;;;;;;;;;4977030;28;20077;-80
2022/03/30 11:02:14;;;;;;;2.20;2.00;;;;;;;;;;4978892;28;20018;-81
2022/03/30 11:04:45;;;;;;;1.55;1.25;;;;;;;;;;4984178;28;20030;-80
2022/03/30 11:07:13;;;;;;;5.03;1.70;;;;;;;;;;4995847;28;20058;-80
2022/03/30 11:09:42;;;;;;;3.05;2.20;;;;;;;;;;4996572;28;20040;-82
2022/03/30 11:12:14;;;;;;;2.38;1.25;;;;;;;;;;4995340;28;20109;-82
2022/03/30 11:15:04;;;;;;;2.10;1.65;;;;;;;;;;4998615;28;20054;-80
2022/03/30 11:17:31;;;;;;;0.63;0.63;;;;;;;;;;5012239;28;20073;-80
2022/03/30 11:19:57;;;;;;;3.47;2.22;;;;;;;;;;4982003;28;20033;-81
2022/03/30 11:22:47;;;;;;;5.68;3.03;;;;;;;;;;4997121;28;20021;-81
2022/03/30 11:25:20;;;;;;;1.88;1.38;;;;;;;;;;4996419;28;20037;-79
2022/03/30 11:28:01;;;;;;;2.33;1.60;;;;;;;;;;4995754;28;20018;-81
2022/03/30 11:30:51;;;;;;;1.80;1.60;;;;;;;;;;4999016;28;20101;-81
2022/03/30 11:33:26;;;;;;;1.13;0.98;;;;;;;;;;4978689;28;20038;-82
2022/03/30 11:35:55;;;;;;;1.88;1.70;;;;;;;;;;4985474;28;20057;-81
2022/03/30 11:38:27;;;;;;;1.30;1.02;;;;;;;;;;4994196;28;20021;-82
2022/03/30 11:41:05;;;;;;;3.67;1.70;;;;;;;;;;5017814;28;20031;-82
2022/03/30 11:45:12;;;;;;;5.18;2.35;;;;;;;;;;4962824;28;20030;-82
2022/03/30 11:46:30;;;;;;;1.30;1.17;;;;;;;;;;4982405;28;20042;-81
2022/03/30 11:49:13;;;;;;;2.50;1.33;;;;;;;;;;5000731;28;20061;-81
2022/03/30 11:51:39;;;;;;;1.55;1.45;;;;;;;;;;4999025;28;20032;-83
2022/03/30 11:54:27;;;;;;;3.22;1.65;;;;;;;;;;4983248;28;20097;-81
2022/03/30 11:56:55;;;;;;;1.27;1.10;;;;;;;;;;4921993;29;20035;-82
2022/03/30 11:59:21;;;;;;;2.53;1.77;;;;;;;;;;4980067;28;20483;-84
2022/03/30 12:01:48;;;;;;;6.15;1.45;;;;;;;;;;4972428;28;20034;-79
2022/03/30 12:04:18;;;;;;;2.00;1.10;;;;;;;;;;5003744;28;20053;-83
2022/03/30 12:06:54;;;;;;;2.78;1.63;;;;;;;;;;4995992;28;20030;-80
2022/03/30 12:09:22;;;;;;;1.67;1.50;;;;;;;;;;4978182;28;20034;-82
2022/03/30 12:11:49;;;;;;;1.65;1.33;;;;;;;;;;5006574;28;20422;-84
2022/03/30 12:14:26;;;;;;;1.88;0.98;;;;;;;;;;4994203;28;20053;-82
2022/03/30 12:16:52;;;;;;;1.85;1.67;;;;;;;;;;4998519;28;20026;-83
2022/03/30 12:19:19;;;;;;;1.88;1.10;;;;;;;;;;4997136;28;20034;-81
2022/03/30 12:21:48;;;;;;;2.88;1.27;;;;;;;;;;4995478;28;20070;-80
2022/03/30 12:24:16;;;;;;;2.67;1.73;;;;;;;;;;4992560;28;20038;-83
2022/03/30 12:26:42;;;;;;;1.95;1.55;;;;;;;;;;4995505;28;20097;-80
2022/03/30 12:29:14;;;;;;;2.80;1.95;;;;;;;;;;4994074;28;20109;-79
2022/03/30 12:31:44;;;;;;;2.42;1.52;;;;;;;;;;4995104;28;20032;-81
2022/03/30 12:34:11;;;;;;;5.20;1.42;;;;;;;;;;4990354;28;20101;-81
2022/03/30 12:36:41;;;;;;;1.70;1.60;;;;;;;;;;4997242;28;20030;-79
2022/03/30 12:39:25;;;;;;;3.25;1.98;;;;;;;;;;4994831;28;20030;-81
2022/03/30 12:42:04;;;;;;;5.90;1.52;;;;;;;;;;4999332;28;20053;-79
2022/03/30 12:44:41;;;;;;;1.85;1.67;;;;;;;;;;4995257;28;20454;-81
2022/03/30 12:47:27;;;;;;;4.57;1.08;;;;;;;;;;5001485;28;20092;-81
2022/03/30 12:50:01;;;;;;;2.20;1.33;;;;;;;;;;5006403;28;20025;-81
2022/03/30 12:52:32;;;;;;;1.15;1.05;;;;;;;;;;4995470;28;20037;-80
2022/03/30 12:55:36;;;;;;;2.58;1.23;;;;;;;;;;5013449;28;20029;-79
2022/03/30 12:58:16;;;;;;;2.17;1.48;;;;;;;;;;4918052;29;20031;-80
2022/03/30 13:00:54;;;;;;;1.52;1.42;;;;;;;;;;4954980;28;20041;-80
2022/03/30 13:03:22;;;;;;;0.93;0.93;;;;;;;;;;4978148;28;20033;-80
2022/03/30 13:05:52;;;;;;;1.35;0.93;;;;;;;;;;4995160;28;20080;-78
2022/03/30 13:08:22;;;;;;;0.82;0.80;;;;;;;;;;4994769;28;20037;-81
2022/03/30 13:11:00;;;;;;;2.38;2.00;;;;;;;;;;4978010;28;20383;-81
2022/03/30 13:13:30;;;;;;;1.58;1.10;;;;;;;;;;5008336;28;20026;-78
2022/03/30 13:16:07;;;;;;;0.88;0.82;;;;;;;;;;4993190;28;20117;-81
2022/03/30 13:18:36;;;;;;;2.95;1.38;;;;;;;;;;4992018;28;20027;-81
2022/03/30 13:21:07;;;;;;;2.38;1.15;;;;;;;;;;4995976;28;20100;-79
2022/03/30 13:23:34;;;;;;;2.97;1.60;;;;;;;;;;4993427;28;20431;-81
2022/03/30 13:26:00;;;;;;;1.25;1.13;;;;;;;;;;4994560;28;20418;-82
2022/03/30 13:28:28;;;;;;;2.05;1.88;;;;;;;;;;4982978;28;20026;-82
2022/03/30 13:30:57;;;;;;;1.90;1.42;;;;;;;;;;4990336;28;20084;-82
2022/03/30 13:33:25;;;;;;;1.65;0.95;;;;;;;;;;4994037;28;20470;-82
2022/03/30 13:35:52;;;;;;;0.55;0.55;;;;;;;;;;5008962;28;20351;-82
2022/03/30 13:38:24;;;;;;;0.68;0.68;;;;;;;;;;4995932;28;20104;-79
2022/03/30 13:40:50;;;;;;;1.25;1.02;;;;;;;;;;5009865;28;20033;-83
2022/03/30 13:43:16;;;;;;;4.05;1.55;;;;;;;;;;4967854;28;20029;-82
2022/03/30 13:45:43;;;;;;;1.42;1.33;;;;;;;;;;5004361;28;20410;-82
2022/03/30 13:48:09;;;;;;;1.00;1.00;;;;;;;;;;5007189;28;20030;-82
2022/03/30 13:50:36;;;;;;;1.42;1.30;;;;;;;;;;5005602;28;20064;-83
2022/03/30 13:53:03;;;;;;;0.98;0.95;;;;;;;;;;4997843;28;20102;-82
2022/03/30 13:55:33;;;;;;;1.55;0.40;;;;;;;;;;4993892;28;20026;-83
2022/03/30 13:57:58;;;;;;;2.70;1.23;;;;;;;;;;5001525;28;20026;-81
2022/03/30 14:00:28;;;;;;;17.60;1.73;;;;;;;;;;5006669;28;20056;-83
2022/03/30 14:02:56;;;;;;;1.75;1.48;;;;;;;;;;4984044;28;20113;-81
2022/03/30 14:05:25;;;;;;;2.45;1.65;;;;;;;;;;5013494;28;20452;-82
2022/03/30 14:07:54;;;;;;;1.83;1.30;;;;;;;;;;4981288;28;20030;-82
2022/03/30 14:10:22;;;;;;;0.45;0.45;;;;;;;;;;5005698;28;20414;-80
2022/03/30 14:12:50;;;;;;;1.45;1.23;;;;;;;;;;4998181;28;20029;-82
2022/03/30 14:15:18;;;;;;;8.20;1.45;;;;;;;;;;5006251;28;20105;-83
2022/03/30 14:17:45;;;;;;;2.63;1.08;;;;;;;;;;4991948;28;20019;-83
2022/03/30 14:20:11;;;;;;;1.33;1.02;;;;;;;;;;4996368;28;20049;-81
2022/03/30 14:22:37;;;;;;;1.02;0.95;;;;;;;;;;4980431;28;20038;-82
2022/03/30 14:25:08;;;;;;;0.98;0.95;;;;;;;;;;5001506;28;20022;-82
2022/03/30 14:27:34;;;;;;;1.10;1.10;;;;;;;;;;5001241;28;20039;-83
2022/03/30 14:29:59;;;;;;;1.02;0.60;;;;;;;;;;5001836;28;20030;-83
2022/03/30 14:32:26;;;;;;;2.83;1.10;;;;;;;;;;5003390;28;20410;-83
2022/03/30 14:34:54;;;;;;;1.70;0.85;;;;;;;;;;5001162;28;20030;-83
2022/03/30 14:37:22;;;;;;;0.77;0.77;;;;;;;;;;5004650;28;20034;-81
2022/03/30 14:39:50;;;;;;;0.70;0.70;;;;;;;;;;4988419;28;20024;-82
2022/03/30 14:42:15;;;;;;;0.80;0.68;;;;;;;;;;4997948;28;20027;-81
2022/03/30 14:44:41;;;;;;;1.70;1.50;;;;;;;;;;5000826;28;20099;-81
2022/03/30 14:47:09;;;;;;;0.65;0.60;;;;;;;;;;5005987;28;20030;-81
2022/03/30 14:49:36;;;;;;;3.20;0.82;;;;;;;;;;5006246;28;20061;-83
2022/03/30 14:52:04;;;;;;;0.75;0.75;;;;;;;;;;5016154;28;20034;-84
2022/03/30 14:54:30;;;;;;;1.75;1.00;;;;;;;;;;4972515;28;20447;-84
2022/03/30 14:56:55;;;;;;;1.30;0.68;;;;;;;;;;4986766;28;20018;-84
2022/03/30 14:59:21;;;;;;;2.42;1.50;;;;;;;;;;4996797;28;20104;-83
2022/03/30 15:01:46;;;;;;;0.93;0.93;;;;;;;;;;5006168;28;20030;-83
2022/03/30 15:04:11;;;;;;;1.45;0.65;;;;;;;;;;5004562;28;20023;-84
2022/03/30 15:06:37;;;;;;;0.95;0.95;;;;;;;;;;5002565;28;20030;-83
2022/03/30 15:09:05;;;;;;;0.57;0.57;;;;;;;;;;4989811;28;20037;-83
2022/03/30 15:11:36;;;;;;;0.55;0.43;;;;;;;;;;4979795;28;20026;-84
2022/03/30 15:14:03;;;;;;;0.13;0.13;;;;;;;;;;4988810;28;20409;-82